createdAt,value
2022-11-05T00:09:10.455Z,10.39
2022-11-05T00:19:14.366Z,10.34
2022-11-05T00:29:15.994Z,10.29
2022-11-05T00:39:17.709Z,10.23
2022-11-05T00:49:31.561Z,10.18
2022-11-05T00:59:33.184Z,10.12
2022-11-05T01:09:34.846Z,10.06
2022-11-05T01:19:36.523Z,10.03
2022-11-05T01:29:38.178Z,10.03
2022-11-05T01:39:39.859Z,10.03
2022-11-05T01:49:41.659Z,10.01
2022-11-05T01:59:54.162Z,10.03
2022-11-05T02:10:08.680Z,10.02
2022-11-05T02:20:23.079Z,10.03
2022-11-05T02:30:53.649Z,9.97
2022-11-05T02:41:08.476Z,9.91
2022-11-05T02:51:23.656Z,9.90
2022-11-05T03:01:25.371Z,9.83
2022-11-05T03:11:31.061Z,9.77
2022-11-05T03:21:50.398Z,9.69
2022-11-05T03:31:56.287Z,9.67
2022-11-05T03:41:59.624Z,9.66
2022-11-05T03:52:07.722Z,9.64
2022-11-05T04:02:11.611Z,9.64
2022-11-05T04:12:32.233Z,9.62
2022-11-05T04:22:53.762Z,9.51
2022-11-05T04:32:58.314Z,9.49
2022-11-05T04:43:00.646Z,9.57
2022-11-05T04:53:02.316Z,9.58
2022-11-05T05:03:03.968Z,9.55
2022-11-05T05:13:05.679Z,9.51
2022-11-05T05:23:07.368Z,9.33
2022-11-05T05:33:09.268Z,9.17
2022-11-05T05:43:11.406Z,9.10
2022-11-05T05:53:13.572Z,9.05
2022-11-05T06:03:15.552Z,9.00
2022-11-05T06:13:17.437Z,8.95
2022-11-05T06:23:19.072Z,8.98
2022-11-05T06:33:20.785Z,8.97
2022-11-05T06:43:22.783Z,8.96
2022-11-05T06:53:24.451Z,8.95
2022-11-05T07:03:26.344Z,9.07
2022-11-05T07:13:28.284Z,9.18
2022-11-05T07:23:29.983Z,9.24
2022-11-05T07:33:36.324Z,9.26
2022-11-05T07:43:38.554Z,9.31
2022-11-05T07:53:45.040Z,9.36
2022-11-05T08:03:47.364Z,9.45
2022-11-05T08:13:49.270Z,9.55
2022-11-05T08:23:50.976Z,9.64
2022-11-05T08:33:55.172Z,9.73
2022-11-05T08:44:00.137Z,9.80
2022-11-05T08:54:01.800Z,9.82
2022-11-05T09:04:03.721Z,9.95
2022-11-05T09:14:05.479Z,10.02
2022-11-05T09:24:07.486Z,10.03
2022-11-05T09:34:09.198Z,10.01
2022-11-05T09:44:23.560Z,10.07
2022-11-05T09:54:30.946Z,10.21
2022-11-05T10:04:33.721Z,10.31
2022-11-05T10:14:40.462Z,10.35
2022-11-05T10:24:46.593Z,10.46
2022-11-05T10:34:49.826Z,10.54
2022-11-05T10:45:23.834Z,10.57
2022-11-05T10:55:37.058Z,10.67
2022-11-05T11:05:40.094Z,10.73
2022-11-05T11:15:41.774Z,10.73
2022-11-05T11:25:58.080Z,10.72
2022-11-05T11:36:00.483Z,10.73
2022-11-05T11:46:08.788Z,10.74
2022-11-05T11:56:16.910Z,10.78
2022-11-05T12:06:45.619Z,10.82
2022-11-05T12:17:17.636Z,10.82
2022-11-05T12:27:25.541Z,10.84
2022-11-05T12:37:34.608Z,10.86
2022-11-05T12:47:49.135Z,10.88
2022-11-05T12:58:00.638Z,10.81
2022-11-05T13:08:10.081Z,10.72
2022-11-05T13:18:18.603Z,10.70
2022-11-05T13:28:23.290Z,10.75
2022-11-05T13:38:44.819Z,10.72
2022-11-05T13:49:02.668Z,10.65
2022-11-05T13:59:13.818Z,10.57
2022-11-05T14:09:23.417Z,10.55
2022-11-05T14:19:32.014Z,10.50
2022-11-05T14:29:38.088Z,10.46
2022-11-05T14:39:40.422Z,10.42
2022-11-05T14:49:53.478Z,10.33
2022-11-05T14:59:57.888Z,10.29
2022-11-05T15:10:10.671Z,10.26
2022-11-05T15:20:20.049Z,10.24
2022-11-05T15:30:23.557Z,10.21
2022-11-05T15:40:31.416Z,10.26
2022-11-05T15:50:33.203Z,10.27
2022-11-05T16:00:36.243Z,10.32
2022-11-05T16:10:38.476Z,10.36
2022-11-05T16:20:40.256Z,10.37
2022-11-05T16:30:58.489Z,10.37
2022-11-05T16:41:00.149Z,10.38
2022-11-05T16:51:01.865Z,10.40
2022-11-05T17:01:07.555Z,10.35
2022-11-05T17:11:20.161Z,10.31
2022-11-05T17:21:31.058Z,10.29
2022-11-05T17:31:32.833Z,10.33
2022-11-05T17:41:34.504Z,10.34
2022-11-05T17:51:36.308Z,10.36
2022-11-05T18:01:42.686Z,10.39
2022-11-05T18:11:45.474Z,10.39
2022-11-05T18:21:47.146Z,10.39
2022-11-05T18:31:48.887Z,10.37
2022-11-05T18:41:50.532Z,10.23
2022-11-05T18:51:52.523Z,10.13
2022-11-05T19:02:07.895Z,10.03
2022-11-05T19:12:09.701Z,9.99
2022-11-05T19:22:11.465Z,9.96
2022-11-05T19:32:13.147Z,9.94
2022-11-05T19:42:14.794Z,9.96
2022-11-05T19:52:16.471Z,9.98
2022-11-05T20:02:18.238Z,9.98
2022-11-05T20:12:19.971Z,9.99
2022-11-05T20:22:23.278Z,10.03
2022-11-05T20:32:26.864Z,10.05
2022-11-05T20:42:28.637Z,10.06
2022-11-05T20:52:30.419Z,10.07
2022-11-05T21:02:34.598Z,10.09
2022-11-05T21:12:36.461Z,10.12
2022-11-05T21:22:38.522Z,10.12
2022-11-05T21:32:40.181Z,10.10
2022-11-05T21:42:42.193Z,10.09
2022-11-05T21:53:02.650Z,10.10
2022-11-05T22:03:04.352Z,10.09
2022-11-05T22:13:14.966Z,10.09
2022-11-05T22:23:29.142Z,10.06
2022-11-05T22:44:57.623Z,9.95
2022-11-05T22:55:02.011Z,9.92
2022-11-05T23:05:22.240Z,9.86
2022-11-05T23:15:45.438Z,9.81
2022-11-05T23:26:25.164Z,9.76
2022-11-05T23:36:45.555Z,9.67
2022-11-05T23:47:05.829Z,9.58
2022-11-05T23:57:07.451Z,9.52
